Time;durP1;ratioP1;P1;durP2;ratioP2;P2;SDS_P1;SDS_P2;PMS_P1;PMS_P2;Temp;Humidity;BMP_temperature;BMP_pressure;BME280_temperature;BME280_humidity;BME280_pressure;Samples;Min_cycle;Max_cycle;Signal;HPM_P1;HPM_P2
2021/04/30 00:01:46;;;;;;;38.83;29.08;;;18.90;77.90;;;;;;5041593;28;20398;-68
2021/04/30 00:04:13;;;;;;;38.35;30.27;;;19.10;76.40;;;;;;5036728;28;20036;-71
2021/04/30 00:06:40;;;;;;;33.50;30.02;;;19.20;76.80;;;;;;5036693;28;20521;-68
2021/04/30 00:09:08;;;;;;;46.40;35.63;;;19.20;76.20;;;;;;5037422;28;20025;-64
2021/04/30 00:11:35;;;;;;;34.60;28.30;;;19.40;75.60;;;;;;5035651;28;20029;-64
2021/04/30 00:14:02;;;;;;;31.35;27.98;;;19.70;74.90;;;;;;5035989;28;20028;-68
2021/04/30 00:16:30;;;;;;;28.90;25.85;;;19.80;73.20;;;;;;5037483;28;20024;-64
2021/04/30 00:18:57;;;;;;;28.67;24.83;;;20.00;73.50;;;;;;5032620;28;20021;-71
2021/04/30 00:21:24;;;;;;;29.80;23.75;;;20.20;73.10;;;;;;5038736;28;20017;-64
2021/04/30 00:23:56;;;;;;;25.10;22.67;;;20.50;72.10;;;;;;5036680;28;20500;-71
2021/04/30 00:26:23;;;;;;;24.48;22.08;;;20.70;70.60;;;;;;5034451;28;20219;-71
2021/04/30 00:28:51;;;;;;;28.55;25.52;;;20.60;70.40;;;;;;5042282;28;20035;-69
2021/04/30 00:31:19;;;;;;;33.88;22.85;;;20.80;70.10;;;;;;5038392;28;20013;-64
2021/04/30 00:33:47;;;;;;;32.63;22.33;;;20.80;70.70;;;;;;5038991;28;20045;-71
2021/04/30 00:36:14;;;;;;;32.78;22.33;;;21.10;71.10;;;;;;5033518;28;20025;-71
2021/04/30 00:38:41;;;;;;;46.17;34.80;;;21.40;70.50;;;;;;5032746;28;20385;-69
2021/04/30 00:41:09;;;;;;;26.77;24.00;;;21.50;69.90;;;;;;5035577;28;20017;-64
2021/04/30 00:43:36;;;;;;;23.95;20.88;;;21.60;68.50;;;;;;5040120;28;20018;-65
2021/04/30 00:46:04;;;;;;;21.52;19.40;;;21.70;68.90;;;;;;5038461;28;20436;-69
2021/04/30 00:48:31;;;;;;;23.02;18.52;;;21.90;68.40;;;;;;5037389;28;20448;-72
2021/04/30 00:50:58;;;;;;;24.23;18.83;;;22.10;67.00;;;;;;5036954;28;20032;-71
2021/04/30 00:53:26;;;;;;;26.50;19.50;;;22.20;66.30;;;;;;5035331;28;20033;-65
2021/04/30 00:55:53;;;;;;;20.20;18.10;;;22.20;66.90;;;;;;5033898;28;20374;-65
2021/04/30 00:58:21;;;;;;;23.00;17.58;;;22.20;66.20;;;;;;5039762;28;20447;-70
2021/04/30 01:00:49;;;;;;;19.75;17.73;;;22.40;66.10;;;;;;5038231;28;20052;-70
2021/04/30 01:03:16;;;;;;;16.25;13.25;;;22.40;65.50;;;;;;5036631;28;20075;-72
2021/04/30 01:05:44;;;;;;;19.05;14.07;;;22.50;67.20;;;;;;5033218;28;20021;-65
2021/04/30 01:08:11;;;;;;;16.90;14.63;;;22.70;64.80;;;;;;5034105;28;20477;-65
2021/04/30 01:10:38;;;;;;;16.77;12.48;;;22.90;64.00;;;;;;5032311;28;20053;-65
2021/04/30 01:13:06;;;;;;;16.13;10.68;;;23.00;63.30;;;;;;5036714;28;20139;-70
2021/04/30 01:15:33;;;;;;;13.18;11.35;;;23.00;63.10;;;;;;5039295;28;20523;-70
2021/04/30 01:18:03;;;;;;;9.38;7.80;;;23.10;62.80;;;;;;5034767;28;20105;-72
2021/04/30 01:20:31;;;;;;;8.75;7.20;;;23.30;61.70;;;;;;5030384;28;20025;-72
2021/04/30 01:22:58;;;;;;;9.30;6.53;;;23.60;61.60;;;;;;5035320;28;20036;-70
2021/04/30 01:25:34;;;;;;;8.68;6.28;;;23.50;60.80;;;;;;5033400;28;20211;-65
2021/04/30 01:28:02;;;;;;;10.65;6.15;;;23.90;59.80;;;;;;5035295;28;20111;-65
2021/04/30 01:30:32;;;;;;;7.53;6.78;;;24.00;58.80;;;;;;5033928;28;20530;-70
2021/04/30 01:33:00;;;;;;;10.18;8.07;;;24.20;59.40;;;;;;5040704;28;20032;-66
2021/04/30 01:35:34;;;;;;;8.00;7.20;;;24.30;58.60;;;;;;5030722;28;20063;-66
2021/04/30 01:38:02;;;;;;;9.13;8.15;;;24.60;57.80;;;;;;5036500;28;20032;-66
2021/04/30 01:40:34;;;;;;;9.80;7.07;;;24.80;58.70;;;;;;5041583;28;20499;-66
2021/04/30 01:43:22;;;;;;;13.20;8.33;;;24.70;57.60;;;;;;5036941;28;20025;-73
2021/04/30 01:46:16;;;;;;;13.15;7.85;;;24.60;58.40;;;;;;5039207;28;20460;-66
2021/04/30 01:48:42;;;;;;;10.73;8.48;;;24.50;58.50;;;;;;5042997;28;20440;-65
2021/04/30 01:51:09;;;;;;;9.10;7.15;;;24.10;58.10;;;;;;5037456;28;20032;-65
2021/04/30 01:53:39;;;;;;;9.82;7.30;;;23.70;59.80;;;;;;5033703;28;20078;-65
2021/04/30 01:56:13;;;;;;;14.65;10.88;;;23.90;59.60;;;;;;5034687;28;20082;-71
2021/04/30 01:58:42;;;;;;;11.05;7.43;;;23.90;59.50;;;;;;5034996;28;20540;-71
2021/04/30 02:01:11;;;;;;;10.38;7.35;;;23.90;59.50;;;;;;5036705;28;20021;-73
2021/04/30 02:03:38;;;;;;;9.43;7.43;;;23.80;59.50;;;;;;5038615;28;20095;-67
2021/04/30 02:06:06;;;;;;;8.13;7.20;;;23.90;59.00;;;;;;5036976;28;20126;-66
2021/04/30 02:08:33;;;;;;;10.90;9.80;;;24.20;58.40;;;;;;5033510;28;20093;-66
2021/04/30 02:11:00;;;;;;;8.07;6.35;;;24.20;59.20;;;;;;5036810;28;20029;-66
2021/04/30 02:13:28;;;;;;;6.22;3.78;;;24.70;57.90;;;;;;5039170;28;20115;-72
2021/04/30 02:15:56;;;;;;;3.97;3.28;;;25.10;56.20;;;;;;5038110;28;20072;-66
2021/04/30 02:18:24;;;;;;;5.47;3.75;;;25.30;54.10;;;;;;5037669;28;20029;-71
2021/04/30 02:20:52;;;;;;;4.38;3.75;;;25.30;53.60;;;;;;5032354;28;20043;-71
2021/04/30 02:23:21;;;;;;;6.65;4.15;;;25.40;55.40;;;;;;5034187;28;20389;-67
2021/04/30 02:25:49;;;;;;;3.75;3.20;;;25.70;54.30;;;;;;5038239;28;20493;-66
2021/04/30 02:28:16;;;;;;;5.03;2.70;;;26.00;53.30;;;;;;5035573;28;20436;-71
2021/04/30 02:30:44;;;;;;;6.28;3.35;;;26.10;52.20;;;;;;5034173;28;20083;-66
2021/04/30 02:33:12;;;;;;;8.48;4.55;;;26.00;51.80;;;;;;5085638;22;20126;-66
2021/04/30 02:35:45;;;;;;;4.35;3.95;;;26.00;52.30;;;;;;5031092;28;20025;-68
2021/04/30 02:38:14;;;;;;;7.68;4.18;;;25.90;52.30;;;;;;5035968;28;20534;-72
2021/04/30 02:40:43;;;;;;;6.78;6.03;;;25.40;52.30;;;;;;5031659;28;20032;-67
2021/04/30 02:43:14;;;;;;;14.82;9.93;;;24.90;53.40;;;;;;5037751;28;20120;-70
2021/04/30 02:45:50;;;;;;;10.13;5.50;;;24.50;55.50;;;;;;5035272;28;20053;-67
2021/04/30 02:48:39;;;;;;;7.50;4.32;;;24.20;55.60;;;;;;5033081;28;20032;-66
2021/04/30 02:51:11;;;;;;;4.90;3.63;;;24.00;56.00;;;;;;5034131;28;20440;-66
2021/04/30 02:53:38;;;;;;;8.70;4.18;;;23.80;57.30;;;;;;5030992;28;20029;-72
2021/04/30 02:56:06;;;;;;;6.90;3.80;;;24.10;56.50;;;;;;5035694;28;20037;-66
2021/04/30 02:58:33;;;;;;;6.25;4.00;;;24.40;55.00;;;;;;5036759;28;20036;-65
2021/04/30 03:01:00;;;;;;;8.43;4.22;;;25.00;54.60;;;;;;5039660;28;20032;-68
2021/04/30 03:03:28;;;;;;;10.25;5.10;;;25.30;53.30;;;;;;5038527;28;20024;-66
2021/04/30 03:05:55;;;;;;;3.80;3.00;;;25.60;53.30;;;;;;5039278;28;20109;-72
2021/04/30 03:08:22;;;;;;;5.45;3.63;;;25.80;51.10;;;;;;5039547;28;20528;-66
2021/04/30 03:10:50;;;;;;;12.15;6.90;;;25.60;51.00;;;;;;5039137;28;20107;-69
2021/04/30 03:13:17;;;;;;;23.45;6.30;;;25.50;51.40;;;;;;5042521;28;20029;-72
2021/04/30 03:15:44;;;;;;;4.72;2.90;;;25.60;50.90;;;;;;5038913;28;20013;-66
2021/04/30 03:18:13;;;;;;;6.63;3.65;;;26.10;50.20;;;;;;5037637;28;20091;-74
2021/04/30 03:20:40;;;;;;;9.40;3.97;;;26.10;50.00;;;;;;5038784;28;20052;-68
2021/04/30 03:23:08;;;;;;;6.63;4.00;;;26.00;50.70;;;;;;5038071;28;20425;-70
2021/04/30 03:25:36;;;;;;;5.43;4.53;;;26.00;51.10;;;;;;5036554;28;20037;-70
2021/04/30 03:28:03;;;;;;;5.88;3.83;;;25.80;50.60;;;;;;5037186;28;20472;-70
2021/04/30 03:30:30;;;;;;;4.85;3.33;;;25.60;52.00;;;;;;5035708;28;20116;-68
2021/04/30 03:32:58;;;;;;;4.00;3.33;;;25.50;51.20;;;;;;5035944;28;20032;-68
2021/04/30 03:35:25;;;;;;;3.28;2.97;;;25.50;51.80;;;;;;5037251;28;20037;-68
2021/04/30 03:37:53;;;;;;;4.32;3.53;;;25.40;51.30;;;;;;5040505;28;20401;-67
2021/04/30 03:40:20;;;;;;;3.72;3.33;;;25.30;52.30;;;;;;5039733;28;20581;-67
2021/04/30 03:42:47;;;;;;;6.15;3.60;;;25.50;51.60;;;;;;5039142;28;20524;-72
2021/04/30 03:45:15;;;;;;;8.18;4.07;;;25.40;51.00;;;;;;5038398;28;20029;-70
2021/04/30 03:47:42;;;;;;;5.45;4.20;;;25.20;52.80;;;;;;5040269;28;20074;-68
2021/04/30 03:50:10;;;;;;;5.22;4.07;;;25.20;53.40;;;;;;5036268;28;20021;-68
2021/04/30 03:52:37;;;;;;;6.57;4.53;;;25.30;52.70;;;;;;5037136;28;20029;-69
2021/04/30 03:55:05;;;;;;;8.27;4.70;;;24.80;53.50;;;;;;5038081;28;20481;-67
2021/04/30 03:57:32;;;;;;;7.65;4.32;;;24.20;54.70;;;;;;5037519;28;20063;-70
2021/04/30 04:00:00;;;;;;;7.60;4.57;;;23.90;55.40;;;;;;5037267;28;20013;-68
2021/04/30 04:02:27;;;;;;;5.50;3.72;;;23.80;56.80;;;;;;5036681;28;20033;-71
2021/04/30 04:04:54;;;;;;;7.22;4.10;;;23.80;55.20;;;;;;5036737;28;20540;-67
2021/04/30 04:07:22;;;;;;;5.15;4.40;;;23.90;56.20;;;;;;5035280;28;20496;-69
2021/04/30 04:09:49;;;;;;;5.30;4.32;;;24.20;54.70;;;;;;5036267;28;20025;-68
2021/04/30 04:12:16;;;;;;;4.28;3.88;;;24.40;54.70;;;;;;5037267;28;20399;-68
2021/04/30 04:14:44;;;;;;;5.55;3.90;;;24.90;53.90;;;;;;5036311;28;20021;-68
2021/04/30 04:17:16;;;;;;;5.60;4.15;;;25.20;52.40;;;;;;5035325;28;20017;-68
2021/04/30 04:19:52;;;;;;;6.43;4.65;;;25.40;52.00;;;;;;5035845;28;20026;-70
2021/04/30 04:22:20;;;;;;;4.47;4.03;;;25.50;51.50;;;;;;5036521;28;20500;-68
2021/04/30 04:24:47;;;;;;;5.70;4.53;;;25.40;51.20;;;;;;5039314;28;20033;-67
2021/04/30 04:27:15;;;;;;;5.40;4.18;;;25.40;51.70;;;;;;5036949;28;20292;-69
2021/04/30 04:29:43;;;;;;;5.55;4.13;;;25.50;51.50;;;;;;5036180;28;20053;-66
2021/04/30 04:32:11;;;;;;;5.28;4.40;;;25.70;50.90;;;;;;5036305;28;20531;-67
2021/04/30 04:34:38;;;;;;;5.00;4.40;;;26.00;51.00;;;;;;5033232;28;20049;-71
2021/04/30 04:37:05;;;;;;;6.55;5.47;;;25.80;50.20;;;;;;5035881;28;20021;-71
2021/04/30 04:39:33;;;;;;;8.63;7.68;;;25.30;52.40;;;;;;5036212;28;20078;-67
2021/04/30 04:42:03;;;;;;;8.95;8.02;;;24.80;53.90;;;;;;5037190;28;20076;-69
2021/04/30 04:44:30;;;;;;;10.20;8.90;;;24.60;54.50;;;;;;5037346;28;20455;-68
2021/04/30 04:46:59;;;;;;;10.02;8.05;;;24.10;55.60;;;;;;5036285;28;20025;-67
2021/04/30 04:49:26;;;;;;;9.85;8.82;;;23.70;56.40;;;;;;5035958;28;20041;-67
2021/04/30 04:51:54;;;;;;;9.55;8.05;;;23.40;57.30;;;;;;5035572;28;20026;-72
2021/04/30 04:54:22;;;;;;;8.48;7.10;;;23.40;56.70;;;;;;5033763;28;20083;-72
2021/04/30 04:56:49;;;;;;;9.77;7.72;;;23.20;57.70;;;;;;5032009;28;20055;-69
2021/04/30 04:59:16;;;;;;;8.88;6.55;;;23.10;57.90;;;;;;5036656;28;20021;-67
2021/04/30 05:01:44;;;;;;;9.50;7.28;;;23.00;58.50;;;;;;5034084;28;20036;-67
2021/04/30 05:04:11;;;;;;;8.68;7.05;;;22.90;58.30;;;;;;5035328;28;20032;-68
2021/04/30 05:06:38;;;;;;;9.18;6.97;;;22.80;59.10;;;;;;5037947;28;20584;-67
2021/04/30 05:09:06;;;;;;;8.20;5.60;;;22.80;59.80;;;;;;5033958;28;20388;-66
2021/04/30 05:11:34;;;;;;;7.88;6.30;;;22.90;58.70;;;;;;5037268;28;20433;-65
2021/04/30 05:14:01;;;;;;;8.30;7.18;;;23.10;58.80;;;;;;5037321;28;20167;-66
2021/04/30 05:16:28;;;;;;;9.20;6.90;;;23.40;58.40;;;;;;5036054;28;20029;-67
2021/04/30 05:18:55;;;;;;;10.43;7.65;;;23.60;57.70;;;;;;5032164;28;20143;-67
2021/04/30 05:21:23;;;;;;;10.63;8.57;;;24.00;57.20;;;;;;5034795;28;20021;-65
2021/04/30 05:23:50;;;;;;;9.30;8.35;;;24.10;56.70;;;;;;5040053;28;20029;-69
2021/04/30 05:26:18;;;;;;;10.65;8.02;;;24.20;57.70;;;;;;5037912;28;20031;-67
2021/04/30 05:28:45;;;;;;;7.88;7.10;;;24.10;58.50;;;;;;5037040;28;20037;-63
2021/04/30 05:31:12;;;;;;;7.72;6.55;;;24.30;58.50;;;;;;5044035;28;20025;-62
2021/04/30 05:33:39;;;;;;;11.40;6.10;;;24.30;58.90;;;;;;5038804;28;20041;-67
2021/04/30 05:36:07;;;;;;;8.85;5.13;;;24.30;58.00;;;;;;5040722;28;20027;-66
2021/04/30 05:38:34;;;;;;;7.72;4.57;;;24.30;57.90;;;;;;5039590;28;20067;-64
2021/04/30 05:41:02;;;;;;;9.57;6.07;;;24.20;57.40;;;;;;5039111;28;20029;-66
2021/04/30 05:43:29;;;;;;;5.28;4.68;;;23.70;58.40;;;;;;5038624;28;20029;-66
2021/04/30 05:45:56;;;;;;;5.53;4.22;;;23.30;59.60;;;;;;5040098;28;20032;-65
2021/04/30 05:48:23;;;;;;;5.72;4.60;;;22.90;59.80;;;;;;5040661;28;20041;-67
2021/04/30 05:50:51;;;;;;;7.05;4.47;;;22.70;61.00;;;;;;5035874;28;20036;-64
2021/04/30 05:53:20;;;;;;;5.25;4.75;;;22.50;62.20;;;;;;5037633;28;20726;-68
2021/04/30 05:55:48;;;;;;;7.25;5.03;;;22.40;62.80;;;;;;5039509;28;20030;-67
2021/04/30 05:58:15;;;;;;;7.10;4.38;;;22.30;63.40;;;;;;5036074;28;20074;-66
2021/04/30 06:00:43;;;;;;;5.93;3.80;;;22.30;63.60;;;;;;5038685;28;20907;-66
2021/04/30 06:03:10;;;;;;;6.20;4.47;;;22.20;64.10;;;;;;5033014;28;20041;-67
2021/04/30 06:05:37;;;;;;;13.10;8.40;;;22.10;64.40;;;;;;5035349;28;20079;-70
2021/04/30 06:08:05;;;;;;;9.93;7.75;;;22.20;65.10;;;;;;5041644;28;20021;-67
2021/04/30 06:10:32;;;;;;;7.10;4.80;;;22.60;64.10;;;;;;5041001;28;20025;-70
2021/04/30 06:13:07;;;;;;;5.35;4.05;;;22.80;63.20;;;;;;5041229;28;20028;-64
2021/04/30 06:15:35;;;;;;;5.80;4.32;;;22.60;63.70;;;;;;5040739;28;20032;-68
2021/04/30 06:18:02;;;;;;;6.57;4.05;;;22.50;64.60;;;;;;5035648;28;20013;-67
2021/04/30 06:20:30;;;;;;;6.78;3.97;;;22.30;64.80;;;;;;5042110;28;20323;-64
2021/04/30 06:22:57;;;;;;;5.03;3.75;;;22.20;65.80;;;;;;5039564;28;20191;-65
2021/04/30 06:25:24;;;;;;;5.65;3.88;;;22.10;66.20;;;;;;5037335;28;20033;-64
2021/04/30 06:27:51;;;;;;;5.78;3.50;;;21.90;66.90;;;;;;5041237;28;20028;-67
2021/04/30 06:30:19;;;;;;;4.78;3.63;;;21.70;67.50;;;;;;5034888;28;20109;-67
2021/04/30 06:32:46;;;;;;;4.13;3.03;;;21.50;68.30;;;;;;5037814;28;20032;-66
2021/04/30 06:35:13;;;;;;;3.65;2.80;;;21.30;69.20;;;;;;5035814;28;20033;-67
2021/04/30 06:37:41;;;;;;;4.82;2.58;;;21.20;69.50;;;;;;5041060;28;20494;-68
2021/04/30 06:40:09;;;;;;;3.70;2.33;;;21.00;69.60;;;;;;5041875;28;20074;-69
2021/04/30 06:42:37;;;;;;;3.63;2.30;;;20.90;70.40;;;;;;5042039;28;20514;-66
2021/04/30 06:45:05;;;;;;;4.18;2.65;;;20.80;70.20;;;;;;5039038;28;20128;-66
2021/04/30 06:47:34;;;;;;;3.78;2.60;;;20.80;70.70;;;;;;5039136;28;20610;-66
2021/04/30 06:50:02;;;;;;;2.38;2.10;;;20.60;71.00;;;;;;5038284;28;20051;-69
2021/04/30 06:52:29;;;;;;;2.70;1.90;;;20.50;71.20;;;;;;5035708;28;20025;-72
2021/04/30 06:54:56;;;;;;;8.07;2.60;;;20.40;71.50;;;;;;5036960;28;20021;-69
2021/04/30 06:57:25;;;;;;;3.55;2.58;;;20.30;71.70;;;;;;5036924;28;20063;-70
2021/04/30 06:59:52;;;;;;;3.85;2.20;;;20.30;71.60;;;;;;5036659;28;20017;-69
2021/04/30 07:02:19;;;;;;;4.15;1.98;;;20.20;72.00;;;;;;5041588;28;20102;-68
2021/04/30 07:04:47;;;;;;;3.92;1.80;;;20.10;72.00;;;;;;5039076;28;20360;-68
2021/04/30 07:07:15;;;;;;;4.32;2.20;;;20.10;72.30;;;;;;5037319;28;20068;-68
2021/04/30 07:09:42;;;;;;;7.43;6.65;;;20.00;72.50;;;;;;5041730;28;20037;-66
2021/04/30 07:12:10;;;;;;;3.47;1.90;;;19.90;73.10;;;;;;5044648;28;20057;-67
2021/04/30 07:14:38;;;;;;;5.40;3.55;;;19.80;73.90;;;;;;5044060;28;20052;-68
2021/04/30 07:17:05;;;;;;;5.10;3.42;;;19.70;74.30;;;;;;5047974;28;20526;-66
2021/04/30 07:19:32;;;;;;;4.72;3.53;;;19.60;74.70;;;;;;5048975;28;20016;-68
2021/04/30 07:21:59;;;;;;;5.05;2.85;;;19.50;75.10;;;;;;5047277;28;20021;-67
2021/04/30 07:24:27;;;;;;;5.22;3.05;;;19.40;75.60;;;;;;5041611;28;20031;-68
2021/04/30 07:26:54;;;;;;;10.02;6.72;;;19.40;75.70;;;;;;5044189;28;20455;-66
2021/04/30 07:29:22;;;;;;;6.95;5.55;;;19.30;76.40;;;;;;5041865;28;20115;-66
2021/04/30 07:31:49;;;;;;;7.47;4.70;;;19.20;76.80;;;;;;5046023;28;20039;-64
2021/04/30 07:34:16;;;;;;;6.45;3.92;;;19.20;77.10;;;;;;5044836;28;20071;-67
2021/04/30 07:36:43;;;;;;;4.00;3.60;;;19.10;77.30;;;;;;5048083;28;20420;-66
2021/04/30 07:39:11;;;;;;;9.95;5.63;;;19.00;78.10;;;;;;5053426;28;20421;-67
2021/04/30 07:41:38;;;;;;;13.82;11.73;;;19.00;78.50;;;;;;5049870;28;20321;-71
2021/04/30 07:44:05;;;;;;;4.18;3.25;;;18.80;79.30;;;;;;5043302;28;20497;-69
2021/04/30 07:46:33;;;;;;;4.97;3.13;;;18.80;80.00;;;;;;5039577;28;20017;-69
2021/04/30 07:49:00;;;;;;;4.68;3.10;;;18.70;80.40;;;;;;5037031;28;20589;-65
2021/04/30 07:51:27;;;;;;;5.13;2.92;;;18.70;81.20;;;;;;5040873;28;20021;-70
2021/04/30 07:53:55;;;;;;;7.82;3.00;;;18.70;81.50;;;;;;5039291;28;20032;-70
2021/04/30 07:56:22;;;;;;;6.05;4.32;;;18.60;81.90;;;;;;5040053;28;20133;-64
2021/04/30 07:58:49;;;;;;;8.45;5.72;;;18.50;82.40;;;;;;5042900;28;20029;-69
2021/04/30 08:01:17;;;;;;;6.32;3.90;;;18.50;82.60;;;;;;5039700;28;20626;-64
2021/04/30 08:03:44;;;;;;;5.00;3.53;;;18.40;83.10;;;;;;5041881;28;20029;-65
2021/04/30 08:06:11;;;;;;;6.50;3.13;;;18.40;83.40;;;;;;5040510;28;20040;-70
2021/04/30 08:08:40;;;;;;;4.38;2.25;;;18.20;83.90;;;;;;5043962;28;20527;-65
2021/04/30 08:11:10;;;;;;;4.53;2.25;;;18.20;84.30;;;;;;5039861;28;20025;-71
2021/04/30 08:13:37;;;;;;;3.13;1.50;;;18.10;84.60;;;;;;5038840;28;20033;-64
2021/04/30 08:16:05;;;;;;;2.08;1.50;;;18.00;85.10;;;;;;5042237;28;20020;-69
2021/04/30 08:18:32;;;;;;;3.03;1.20;;;18.00;84.90;;;;;;5042828;28;20070;-64
2021/04/30 08:20:59;;;;;;;4.53;2.28;;;18.00;85.30;;;;;;5039709;28;20477;-64
2021/04/30 08:23:26;;;;;;;5.57;3.30;;;18.00;85.40;;;;;;5038141;28;20049;-71
2021/04/30 08:25:54;;;;;;;6.80;3.50;;;17.90;85.50;;;;;;5042819;28;20013;-70
2021/04/30 08:28:21;;;;;;;4.28;2.65;;;17.80;85.90;;;;;;5041767;28;20026;-70
2021/04/30 08:30:49;;;;;;;4.30;1.95;;;17.70;86.80;;;;;;5041443;28;20052;-70
2021/04/30 08:33:16;;;;;;;9.45;4.72;;;17.70;86.90;;;;;;5041162;28;20045;-63
2021/04/30 08:35:43;;;;;;;13.85;9.32;;;17.50;87.30;;;;;;5041499;28;20013;-63
2021/04/30 08:38:11;;;;;;;16.75;12.05;;;17.50;87.30;;;;;;5039832;28;20546;-63
2021/04/30 08:40:38;;;;;;;12.38;7.75;;;17.40;87.90;;;;;;5042958;28;20039;-64
2021/04/30 08:43:05;;;;;;;6.55;4.75;;;17.40;88.10;;;;;;5036750;28;20086;-69
2021/04/30 08:45:32;;;;;;;6.32;4.00;;;17.40;88.10;;;;;;5037266;28;20568;-69
2021/04/30 08:48:01;;;;;;;6.25;4.22;;;17.30;88.40;;;;;;5037848;28;20106;-69
2021/04/30 08:50:28;;;;;;;4.90;4.18;;;17.10;88.70;;;;;;5039175;28;20021;-63
2021/04/30 08:52:55;;;;;;;6.60;3.63;;;17.00;89.20;;;;;;5036432;28;20033;-63
2021/04/30 08:55:24;;;;;;;4.15;3.20;;;17.00;89.20;;;;;;5037872;28;20049;-69
2021/04/30 08:57:54;;;;;;;4.35;2.60;;;16.90;89.70;;;;;;5040851;28;20088;-63
2021/04/30 09:00:28;;;;;;;4.63;3.40;;;16.80;89.70;;;;;;5035349;28;20039;-69
2021/04/30 09:02:56;;;;;;;3.80;2.83;;;16.80;90.10;;;;;;5036652;28;20086;-64
2021/04/30 09:05:31;;;;;;;5.45;3.15;;;16.80;90.20;;;;;;5038242;28;20033;-64
2021/04/30 09:08:00;;;;;;;3.10;2.30;;;16.80;90.50;;;;;;5037629;28;20029;-64
2021/04/30 09:10:37;;;;;;;5.30;2.22;;;16.80;90.50;;;;;;5040648;28;20030;-70
2021/04/30 09:13:08;;;;;;;5.32;3.13;;;16.70;90.50;;;;;;5038165;28;20109;-64
2021/04/30 09:15:37;;;;;;;4.93;2.22;;;16.70;90.70;;;;;;5039825;28;20487;-64
2021/04/30 09:18:28;;;;;;;2.70;1.90;;;16.80;90.70;;;;;;5038203;28;20017;-63
2021/04/30 09:21:09;;;;;;;8.50;4.72;;;16.80;90.70;;;;;;5038502;28;20025;-71
2021/04/30 09:23:44;;;;;;;5.22;3.40;;;16.70;90.80;;;;;;5040716;28;20028;-64
2021/04/30 09:26:31;;;;;;;14.60;8.75;;;16.70;90.70;;;;;;5038658;28;20029;-70
2021/04/30 09:29:12;;;;;;;5.82;4.15;;;16.70;90.80;;;;;;5039400;28;20024;-69
2021/04/30 09:31:42;;;;;;;8.70;7.80;;;16.70;90.90;;;;;;5035234;28;20025;-63
2021/04/30 09:34:25;;;;;;;6.68;4.00;;;16.60;91.10;;;;;;5038044;28;20041;-64
2021/04/30 09:37:14;;;;;;;6.68;4.22;;;16.50;91.30;;;;;;5038834;28;20057;-69
2021/04/30 09:40:02;;;;;;;12.20;9.43;;;16.50;91.30;;;;;;5039489;28;20021;-71
2021/04/30 09:42:36;;;;;;;6.45;4.07;;;16.40;91.20;;;;;;5035123;28;20029;-64
2021/04/30 09:45:07;;;;;;;5.05;3.40;;;16.30;91.40;;;;;;5037086;28;20032;-64
2021/04/30 09:47:36;;;;;;;4.63;3.33;;;16.20;91.60;;;;;;5040049;28;20374;-70
2021/04/30 09:50:08;;;;;;;5.78;4.03;;;16.10;91.60;;;;;;5038653;28;20128;-64
2021/04/30 09:52:36;;;;;;;5.50;3.20;;;16.00;91.90;;;;;;5037445;28;20040;-64
2021/04/30 09:55:05;;;;;;;5.35;2.30;;;15.90;91.90;;;;;;5038211;28;20029;-72
2021/04/30 09:57:34;;;;;;;3.00;2.13;;;15.80;92.00;;;;;;5039158;28;20020;-65
2021/04/30 10:00:08;;;;;;;4.53;2.20;;;15.80;92.10;;;;;;5038397;28;20053;-70
2021/04/30 10:02:37;;;;;;;3.75;2.30;;;15.70;91.90;;;;;;5037114;28;20053;-63
2021/04/30 10:05:21;;;;;;;4.72;2.97;;;15.70;92.20;;;;;;5039324;28;20789;-70
2021/04/30 10:07:49;;;;;;;6.65;2.88;;;15.60;92.40;;;;;;5036446;28;20052;-64
2021/04/30 10:10:23;;;;;;;4.10;2.20;;;15.50;92.50;;;;;;5037928;28;20043;-71
2021/04/30 10:12:58;;;;;;;3.92;2.28;;;15.50;92.70;;;;;;5038537;28;20052;-66
2021/04/30 10:15:27;;;;;;;5.95;2.47;;;15.50;92.60;;;;;;5037700;28;20029;-70
2021/04/30 10:17:59;;;;;;;4.28;2.58;;;15.50;92.80;;;;;;5037299;28;20025;-63
2021/04/30 10:20:27;;;;;;;2.92;2.20;;;15.40;92.80;;;;;;5045478;28;20017;-63
2021/04/30 10:22:55;;;;;;;5.35;2.38;;;15.30;93.00;;;;;;5044990;28;20045;-63
2021/04/30 10:25:23;;;;;;;3.42;2.22;;;15.30;93.00;;;;;;5046071;28;20056;-69
2021/04/30 10:27:53;;;;;;;6.38;3.00;;;15.30;93.10;;;;;;5045821;28;20033;-64
2021/04/30 10:30:23;;;;;;;5.57;2.92;;;15.30;93.30;;;;;;5045322;28;20043;-71
2021/04/30 10:32:57;;;;;;;2.83;2.17;;;15.20;93.40;;;;;;5045062;28;20059;-71
2021/04/30 10:35:54;;;;;;;6.22;2.50;;;15.20;93.20;;;;;;5045643;28;20108;-71
2021/04/30 10:38:23;;;;;;;6.30;2.47;;;15.20;93.40;;;;;;5036564;28;20102;-71
2021/04/30 10:40:59;;;;;;;4.65;2.55;;;15.10;93.50;;;;;;5045767;28;20036;-71
2021/04/30 10:43:27;;;;;;;4.38;2.22;;;15.10;93.40;;;;;;5044441;28;20021;-71
2021/04/30 10:46:07;;;;;;;5.78;3.00;;;15.10;93.50;;;;;;5045387;28;20032;-64
2021/04/30 10:48:40;;;;;;;3.33;2.33;;;15.00;93.50;;;;;;5045133;28;20132;-62
2021/04/30 10:51:15;;;;;;;5.18;2.50;;;15.10;93.80;;;;;;5043395;28;20029;-62
2021/04/30 10:53:46;;;;;;;3.47;2.35;;;15.20;93.80;;;;;;5038639;28;20024;-69
2021/04/30 10:56:33;;;;;;;4.38;2.42;;;15.20;93.70;;;;;;5045267;28;20047;-70
2021/04/30 10:59:01;;;;;;;5.88;2.67;;;15.10;93.80;;;;;;5045173;28;20067;-63
2021/04/30 11:01:33;;;;;;;3.53;2.28;;;15.00;93.90;;;;;;5037804;28;20030;-64
2021/04/30 11:04:17;;;;;;;3.55;2.65;;;14.90;94.00;;;;;;5034816;28;20039;-66
2021/04/30 11:06:54;;;;;;;4.35;2.58;;;14.90;94.30;;;;;;5040587;28;20124;-65
2021/04/30 11:09:38;;;;;;;3.35;2.40;;;14.90;94.30;;;;;;5039906;28;20028;-61
2021/04/30 11:12:21;;;;;;;4.75;2.67;;;14.90;94.30;;;;;;5035786;28;20307;-68
2021/04/30 11:15:02;;;;;;;6.35;2.72;;;14.80;94.30;;;;;;5035514;28;20049;-69
2021/04/30 11:17:54;;;;;;;3.78;2.67;;;14.80;94.10;;;;;;5036549;28;20028;-70
2021/04/30 11:20:28;;;;;;;5.28;2.33;;;14.80;94.10;;;;;;5035863;28;20017;-69
2021/04/30 11:23:13;;;;;;;4.07;2.30;;;14.70;94.30;;;;;;5042354;28;20489;-63
2021/04/30 11:26:04;;;;;;;4.15;2.13;;;14.70;94.20;;;;;;5036987;28;20033;-61
2021/04/30 11:28:31;;;;;;;7.25;2.88;;;14.60;94.20;;;;;;5037756;28;20029;-64
2021/04/30 11:31:29;;;;;;;3.75;2.45;;;14.60;94.40;;;;;;5042022;28;20025;-61
2021/04/30 11:34:20;;;;;;;6.18;2.65;;;14.60;94.40;;;;;;5042132;28;20398;-63
2021/04/30 11:36:54;;;;;;;6.22;3.13;;;14.60;94.60;;;;;;5042101;28;20102;-70
2021/04/30 11:39:27;;;;;;;6.03;2.90;;;14.60;94.60;;;;;;5044417;28;20104;-69
2021/04/30 11:41:59;;;;;;;6.45;2.70;;;14.60;94.60;;;;;;5038484;28;20078;-72
2021/04/30 11:44:26;;;;;;;6.82;2.30;;;14.60;94.60;;;;;;5038119;28;20020;-72
2021/04/30 11:47:03;;;;;;;6.53;3.30;;;14.60;94.70;;;;;;5040325;28;20090;-67
2021/04/30 11:49:33;;;;;;;7.70;3.70;;;14.70;94.60;;;;;;5033118;28;20087;-70
2021/04/30 11:52:01;;;;;;;5.75;3.20;;;14.70;94.60;;;;;;5041405;28;20030;-62
2021/04/30 11:54:39;;;;;;;9.93;3.50;;;14.70;94.50;;;;;;5041902;28;20499;-68
2021/04/30 11:57:14;;;;;;;7.28;2.92;;;14.70;94.30;;;;;;5042495;28;20043;-62
2021/04/30 11:59:45;;;;;;;11.88;3.30;;;14.60;94.30;;;;;;5041983;28;20029;-69
2021/04/30 12:02:15;;;;;;;14.18;4.00;;;14.60;94.20;;;;;;5048020;28;20219;-70
2021/04/30 12:04:51;;;;;;;6.95;3.85;;;14.60;94.40;;;;;;5041279;28;20556;-61
2021/04/30 12:07:20;;;;;;;7.68;3.28;;;14.70;94.60;;;;;;5048009;28;20025;-69
2021/04/30 12:09:49;;;;;;;14.18;4.38;;;14.70;94.50;;;;;;5048335;28;20028;-69
2021/04/30 12:12:24;;;;;;;8.73;3.63;;;14.70;94.60;;;;;;5047291;28;20047;-61
2021/04/30 12:15:03;;;;;;;8.82;3.97;;;14.70;94.40;;;;;;5045087;28;20183;-70
2021/04/30 12:17:37;;;;;;;8.60;4.35;;;14.60;94.40;;;;;;5049229;28;20403;-61
2021/04/30 12:20:12;;;;;;;10.32;3.85;;;14.60;94.70;;;;;;5048572;28;20013;-68
2021/04/30 12:22:54;;;;;;;9.23;4.63;;;14.60;94.50;;;;;;5042581;28;20032;-62
2021/04/30 12:25:32;;;;;;;8.00;4.20;;;14.60;94.70;;;;;;5042709;28;20043;-62
2021/04/30 12:28:15;;;;;;;12.30;4.90;;;14.60;94.70;;;;;;5041469;28;20037;-69
2021/04/30 12:30:44;;;;;;;9.40;5.22;;;14.60;94.80;;;;;;5038335;28;20031;-68
2021/04/30 12:33:25;;;;;;;5.72;4.38;;;14.70;94.60;;;;;;5038599;28;20040;-69
2021/04/30 12:35:57;;;;;;;10.13;5.40;;;14.70;94.50;;;;;;5039563;28;20017;-69
2021/04/30 12:38:25;;;;;;;13.70;6.72;;;14.70;94.60;;;;;;5044440;28;20033;-62
2021/04/30 12:40:53;;;;;;;11.45;7.28;;;14.70;94.90;;;;;;5040467;28;20028;-62
2021/04/30 12:43:29;;;;;;;10.10;6.90;;;14.60;94.50;;;;;;5037977;28;20032;-68
2021/04/30 12:45:58;;;;;;;11.25;6.88;;;14.60;94.60;;;;;;5039551;28;20120;-63
2021/04/30 12:48:27;;;;;;;10.63;7.18;;;14.60;94.40;;;;;;5040702;28;20021;-68
2021/04/30 12:50:57;;;;;;;15.50;6.03;;;14.50;94.30;;;;;;5039506;28;20021;-69
2021/04/30 12:53:27;;;;;;;9.80;5.30;;;14.50;94.60;;;;;;5038931;28;20103;-70
2021/04/30 12:55:55;;;;;;;8.48;6.15;;;14.60;94.70;;;;;;5038712;28;20025;-70
2021/04/30 12:58:22;;;;;;;8.85;5.20;;;14.50;94.80;;;;;;5040903;28;20071;-69